sensor_id;sensor_type;location;lat;lon;timestamp;P1;durP1;ratioP1;P2;durP2;ratioP2
315;SDS011;14128;48.686;9.738;2024-03-23T00:54:29;7.90;;;6.40;;
315;SDS011;14128;48.686;9.738;2024-03-23T00:56:56;9.40;;;6.93;;
315;SDS011;14128;48.686;9.738;2024-03-23T00:59:22;7.60;;;6.20;;
315;SDS011;14128;48.686;9.738;2024-03-23T01:01:52;7.13;;;6.57;;
315;SDS011;14128;48.686;9.738;2024-03-23T01:04:18;8.33;;;6.00;;
315;SDS011;14128;48.686;9.738;2024-03-23T01:06:45;9.60;;;6.83;;
315;SDS011;14128;48.686;9.738;2024-03-23T01:09:12;7.37;;;6.30;;
315;SDS011;14128;48.686;9.738;2024-03-23T01:11:40;11.53;;;6.67;;
315;SDS011;14128;48.686;9.738;2024-03-23T01:14:06;8.63;;;6.37;;
315;SDS011;14128;48.686;9.738;2024-03-23T01:16:33;9.10;;;6.40;;
315;SDS011;14128;48.686;9.738;2024-03-23T01:18:58;7.57;;;7.00;;
315;SDS011;14128;48.686;9.738;2024-03-23T01:21:26;7.77;;;5.50;;
315;SDS011;14128;48.686;9.738;2024-03-23T01:23:52;9.23;;;5.93;;
315;SDS011;14128;48.686;9.738;2024-03-23T01:26:19;7.63;;;6.30;;
315;SDS011;14128;48.686;9.738;2024-03-23T01:28:46;7.47;;;5.93;;
315;SDS011;14128;48.686;9.738;2024-03-23T01:31:13;6.50;;;6.10;;
315;SDS011;14128;48.686;9.738;2024-03-23T01:33:41;6.57;;;5.40;;
315;SDS011;14128;48.686;9.738;2024-03-23T01:36:08;6.00;;;5.37;;
315;SDS011;14128;48.686;9.738;2024-03-23T01:38:34;9.40;;;6.47;;
315;SDS011;14128;48.686;9.738;2024-03-23T01:41:01;7.80;;;5.83;;
315;SDS011;14128;48.686;9.738;2024-03-23T01:43:27;9.30;;;6.80;;
315;SDS011;14128;48.686;9.738;2024-03-23T01:45:56;7.63;;;5.60;;
315;SDS011;14128;48.686;9.738;2024-03-23T01:48:22;7.80;;;6.40;;
315;SDS011;14128;48.686;9.738;2024-03-23T01:50:49;9.87;;;5.63;;
315;SDS011;14128;48.686;9.738;2024-03-23T01:53:15;5.67;;;5.07;;
315;SDS011;14128;48.686;9.738;2024-03-23T01:55:44;5.37;;;5.07;;
315;SDS011;14128;48.686;9.738;2024-03-23T01:58:10;5.03;;;4.80;;
315;SDS011;14128;48.686;9.738;2024-03-23T02:00:37;8.80;;;6.73;;
315;SDS011;14128;48.686;9.738;2024-03-23T02:03:11;13.20;;;7.33;;
315;SDS011;14128;48.686;9.738;2024-03-23T02:05:48;8.30;;;7.07;;
315;SDS011;14128;48.686;9.738;2024-03-23T02:08:14;9.90;;;8.13;;
315;SDS011;14128;48.686;9.738;2024-03-23T02:10:42;13.50;;;8.93;;
315;SDS011;14128;48.686;9.738;2024-03-23T02:13:08;13.93;;;9.10;;
315;SDS011;14128;48.686;9.738;2024-03-23T02:15:35;9.60;;;6.77;;
315;SDS011;14128;48.686;9.738;2024-03-23T02:18:01;8.60;;;5.67;;
315;SDS011;14128;48.686;9.738;2024-03-23T02:20:29;11.13;;;7.37;;
315;SDS011;14128;48.686;9.738;2024-03-23T02:22:56;16.27;;;8.47;;
315;SDS011;14128;48.686;9.738;2024-03-23T02:25:23;10.10;;;7.37;;
315;SDS011;14128;48.686;9.738;2024-03-23T02:27:49;10.30;;;8.47;;
315;SDS011;14128;48.686;9.738;2024-03-23T02:30:19;11.27;;;7.57;;
315;SDS011;14128;48.686;9.738;2024-03-23T02:32:45;20.03;;;9.43;;
315;SDS011;14128;48.686;9.738;2024-03-23T02:35:12;12.57;;;10.57;;
315;SDS011;14128;48.686;9.738;2024-03-23T02:37:38;11.77;;;8.80;;
315;SDS011;14128;48.686;9.738;2024-03-23T02:40:07;8.67;;;8.10;;
315;SDS011;14128;48.686;9.738;2024-03-23T02:42:34;10.80;;;7.50;;
315;SDS011;14128;48.686;9.738;2024-03-23T02:45:01;10.43;;;8.53;;
315;SDS011;14128;48.686;9.738;2024-03-23T02:47:29;8.77;;;6.97;;
315;SDS011;14128;48.686;9.738;2024-03-23T02:49:56;10.40;;;6.43;;
315;SDS011;14128;48.686;9.738;2024-03-23T02:52:23;12.17;;;7.70;;
315;SDS011;14128;48.686;9.738;2024-03-23T02:54:50;9.53;;;6.80;;
315;SDS011;14128;48.686;9.738;2024-03-23T02:57:17;9.60;;;8.00;;
315;SDS011;14128;48.686;9.738;2024-03-23T02:59:44;10.30;;;8.87;;
315;SDS011;14128;48.686;9.738;2024-03-23T03:02:11;13.23;;;9.53;;
315;SDS011;14128;48.686;9.738;2024-03-23T03:04:38;10.70;;;7.60;;
315;SDS011;14128;48.686;9.738;2024-03-23T03:07:04;14.47;;;8.77;;
315;SDS011;14128;48.686;9.738;2024-03-23T03:09:31;11.87;;;7.70;;
315;SDS011;14128;48.686;9.738;2024-03-23T03:11:58;10.57;;;7.63;;
315;SDS011;14128;48.686;9.738;2024-03-23T03:14:26;9.90;;;7.40;;
315;SDS011;14128;48.686;9.738;2024-03-23T03:16:53;12.70;;;8.20;;
315;SDS011;14128;48.686;9.738;2024-03-23T03:19:20;11.50;;;7.03;;
315;SDS011;14128;48.686;9.738;2024-03-23T03:21:45;12.73;;;8.07;;
315;SDS011;14128;48.686;9.738;2024-03-23T03:24:13;11.77;;;8.57;;
315;SDS011;14128;48.686;9.738;2024-03-23T03:26:39;12.40;;;7.77;;
315;SDS011;14128;48.686;9.738;2024-03-23T03:29:06;8.20;;;7.40;;
315;SDS011;14128;48.686;9.738;2024-03-23T03:31:33;10.97;;;7.87;;
315;SDS011;14128;48.686;9.738;2024-03-23T03:34:00;15.00;;;8.00;;
315;SDS011;14128;48.686;9.738;2024-03-23T03:36:26;9.37;;;7.23;;
315;SDS011;14128;48.686;9.738;2024-03-23T03:38:53;13.10;;;7.83;;
315;SDS011;14128;48.686;9.738;2024-03-23T03:41:19;9.70;;;7.23;;
315;SDS011;14128;48.686;9.738;2024-03-23T03:43:46;9.90;;;9.07;;
315;SDS011;14128;48.686;9.738;2024-03-23T03:46:12;9.83;;;8.10;;
315;SDS011;14128;48.686;9.738;2024-03-23T03:48:41;8.80;;;6.60;;
315;SDS011;14128;48.686;9.738;2024-03-23T03:51:07;7.93;;;6.57;;
315;SDS011;14128;48.686;9.738;2024-03-23T03:53:34;12.27;;;8.80;;
315;SDS011;14128;48.686;9.738;2024-03-23T03:56:00;10.17;;;8.27;;
315;SDS011;14128;48.686;9.738;2024-03-23T03:58:28;10.27;;;7.30;;
315;SDS011;14128;48.686;9.738;2024-03-23T04:00:54;13.17;;;8.40;;
315;SDS011;14128;48.686;9.738;2024-03-23T04:03:20;11.97;;;8.70;;
315;SDS011;14128;48.686;9.738;2024-03-23T04:05:51;10.03;;;7.60;;
315;SDS011;14128;48.686;9.738;2024-03-23T04:08:18;10.43;;;8.80;;
315;SDS011;14128;48.686;9.738;2024-03-23T04:10:44;13.90;;;8.70;;
315;SDS011;14128;48.686;9.738;2024-03-23T04:13:11;13.60;;;9.30;;
315;SDS011;14128;48.686;9.738;2024-03-23T04:15:37;12.73;;;8.00;;
315;SDS011;14128;48.686;9.738;2024-03-23T04:18:04;10.63;;;8.03;;
315;SDS011;14128;48.686;9.738;2024-03-23T04:20:30;10.27;;;9.20;;
315;SDS011;14128;48.686;9.738;2024-03-23T04:22:59;12.00;;;8.30;;
315;SDS011;14128;48.686;9.738;2024-03-23T04:25:25;13.57;;;9.57;;
315;SDS011;14128;48.686;9.738;2024-03-23T04:27:53;11.07;;;9.37;;
315;SDS011;14128;48.686;9.738;2024-03-23T04:30:19;12.50;;;8.77;;
315;SDS011;14128;48.686;9.738;2024-03-23T04:32:46;13.10;;;10.13;;
315;SDS011;14128;48.686;9.738;2024-03-23T04:35:13;17.60;;;10.43;;
315;SDS011;14128;48.686;9.738;2024-03-23T04:37:40;14.17;;;9.60;;
315;SDS011;14128;48.686;9.738;2024-03-23T04:40:08;13.63;;;9.13;;
315;SDS011;14128;48.686;9.738;2024-03-23T04:42:36;19.10;;;10.47;;
315;SDS011;14128;48.686;9.738;2024-03-23T04:45:04;17.53;;;10.90;;
315;SDS011;14128;48.686;9.738;2024-03-23T04:47:32;17.73;;;10.17;;
315;SDS011;14128;48.686;9.738;2024-03-23T04:50:00;13.73;;;10.43;;
315;SDS011;14128;48.686;9.738;2024-03-23T04:52:28;14.57;;;9.53;;
315;SDS011;14128;48.686;9.738;2024-03-23T04:54:55;14.10;;;10.60;;
315;SDS011;14128;48.686;9.738;2024-03-23T04:57:23;12.10;;;9.23;;
315;SDS011;14128;48.686;9.738;2024-03-23T04:59:50;18.20;;;9.60;;
315;SDS011;14128;48.686;9.738;2024-03-23T05:02:17;11.03;;;9.57;;
315;SDS011;14128;48.686;9.738;2024-03-23T05:04:44;14.23;;;8.63;;
315;SDS011;14128;48.686;9.738;2024-03-23T05:07:10;12.27;;;8.83;;
315;SDS011;14128;48.686;9.738;2024-03-23T05:09:38;13.57;;;10.73;;
315;SDS011;14128;48.686;9.738;2024-03-23T05:12:04;14.10;;;10.03;;
315;SDS011;14128;48.686;9.738;2024-03-23T05:14:33;12.00;;;8.20;;
315;SDS011;14128;48.686;9.738;2024-03-23T05:16:59;13.73;;;8.70;;
315;SDS011;14128;48.686;9.738;2024-03-23T05:19:26;8.10;;;7.43;;
315;SDS011;14128;48.686;9.738;2024-03-23T05:21:52;9.93;;;7.17;;
315;SDS011;14128;48.686;9.738;2024-03-23T05:24:19;13.47;;;10.20;;
315;SDS011;14128;48.686;9.738;2024-03-23T05:26:45;10.17;;;7.50;;
315;SDS011;14128;48.686;9.738;2024-03-23T05:29:12;11.87;;;8.20;;
315;SDS011;14128;48.686;9.738;2024-03-23T05:31:40;10.30;;;6.53;;
315;SDS011;14128;48.686;9.738;2024-03-23T05:34:08;7.53;;;5.40;;
315;SDS011;14128;48.686;9.738;2024-03-23T05:36:34;6.37;;;5.43;;
315;SDS011;14128;48.686;9.738;2024-03-23T05:39:02;6.03;;;5.03;;
315;SDS011;14128;48.686;9.738;2024-03-23T05:41:28;6.73;;;6.33;;
315;SDS011;14128;48.686;9.738;2024-03-23T05:43:55;5.87;;;4.30;;
315;SDS011;14128;48.686;9.738;2024-03-23T05:46:21;11.67;;;6.13;;
315;SDS011;14128;48.686;9.738;2024-03-23T05:48:50;10.00;;;8.00;;
315;SDS011;14128;48.686;9.738;2024-03-23T05:51:16;14.83;;;10.63;;
315;SDS011;14128;48.686;9.738;2024-03-23T05:53:44;13.63;;;10.00;;
315;SDS011;14128;48.686;9.738;2024-03-23T05:56:10;14.03;;;9.33;;
315;SDS011;14128;48.686;9.738;2024-03-23T05:58:37;19.27;;;10.57;;
315;SDS011;14128;48.686;9.738;2024-03-23T06:01:03;18.13;;;11.20;;
315;SDS011;14128;48.686;9.738;2024-03-23T06:03:31;15.90;;;10.87;;
315;SDS011;14128;48.686;9.738;2024-03-23T06:05:58;15.50;;;10.60;;
315;SDS011;14128;48.686;9.738;2024-03-23T06:08:25;15.93;;;13.30;;
315;SDS011;14128;48.686;9.738;2024-03-23T06:10:51;17.87;;;12.70;;
315;SDS011;14128;48.686;9.738;2024-03-23T06:13:18;12.77;;;9.10;;
315;SDS011;14128;48.686;9.738;2024-03-23T06:15:45;17.40;;;13.90;;
315;SDS011;14128;48.686;9.738;2024-03-23T06:18:14;16.77;;;12.20;;
315;SDS011;14128;48.686;9.738;2024-03-23T06:20:40;19.20;;;12.80;;
315;SDS011;14128;48.686;9.738;2024-03-23T06:23:08;17.27;;;11.13;;
315;SDS011;14128;48.686;9.738;2024-03-23T06:25:34;22.00;;;13.07;;
315;SDS011;14128;48.686;9.738;2024-03-23T06:28:01;17.40;;;11.83;;
315;SDS011;14128;48.686;9.738;2024-03-23T06:30:28;22.37;;;13.27;;
315;SDS011;14128;48.686;9.738;2024-03-23T06:32:57;18.90;;;12.10;;
315;SDS011;14128;48.686;9.738;2024-03-23T06:35:23;21.00;;;12.33;;
315;SDS011;14128;48.686;9.738;2024-03-23T06:37:50;17.63;;;10.37;;
315;SDS011;14128;48.686;9.738;2024-03-23T06:40:17;23.47;;;13.07;;
315;SDS011;14128;48.686;9.738;2024-03-23T06:42:44;15.30;;;10.40;;
315;SDS011;14128;48.686;9.738;2024-03-23T06:45:11;19.00;;;8.97;;
315;SDS011;14128;48.686;9.738;2024-03-23T06:47:38;16.67;;;9.73;;
315;SDS011;14128;48.686;9.738;2024-03-23T06:50:04;15.07;;;10.73;;
315;SDS011;14128;48.686;9.738;2024-03-23T06:52:32;11.83;;;8.77;;
315;SDS011;14128;48.686;9.738;2024-03-23T06:54:58;11.20;;;8.70;;
315;SDS011;14128;48.686;9.738;2024-03-23T06:57:26;18.90;;;10.37;;
315;SDS011;14128;48.686;9.738;2024-03-23T06:59:52;11.07;;;8.13;;
315;SDS011;14128;48.686;9.738;2024-03-23T07:02:20;10.00;;;7.20;;
315;SDS011;14128;48.686;9.738;2024-03-23T07:04:46;11.83;;;6.87;;
315;SDS011;14128;48.686;9.738;2024-03-23T07:07:13;11.63;;;6.83;;
315;SDS011;14128;48.686;9.738;2024-03-23T07:09:39;9.23;;;7.17;;
315;SDS011;14128;48.686;9.738;2024-03-23T07:12:06;8.70;;;5.93;;
315;SDS011;14128;48.686;9.738;2024-03-23T07:14:34;8.00;;;4.50;;
315;SDS011;14128;48.686;9.738;2024-03-23T07:17:04;6.03;;;4.23;;
315;SDS011;14128;48.686;9.738;2024-03-23T07:19:30;5.00;;;3.27;;
315;SDS011;14128;48.686;9.738;2024-03-23T07:21:57;3.27;;;2.00;;
315;SDS011;14128;48.686;9.738;2024-03-23T07:24:26;3.77;;;2.30;;
315;SDS011;14128;48.686;9.738;2024-03-23T07:26:55;2.00;;;1.50;;
315;SDS011;14128;48.686;9.738;2024-03-23T07:29:23;2.97;;;1.13;;
315;SDS011;14128;48.686;9.738;2024-03-23T07:31:51;2.43;;;2.27;;
315;SDS011;14128;48.686;9.738;2024-03-23T07:34:17;1.80;;;0.90;;
315;SDS011;14128;48.686;9.738;2024-03-23T07:36:45;1.20;;;0.90;;
315;SDS011;14128;48.686;9.738;2024-03-23T07:39:11;2.80;;;1.43;;
315;SDS011;14128;48.686;9.738;2024-03-23T07:41:38;1.00;;;0.70;;
315;SDS011;14128;48.686;9.738;2024-03-23T07:44:04;1.23;;;0.70;;
315;SDS011;14128;48.686;9.738;2024-03-23T07:46:31;1.43;;;0.50;;
315;SDS011;14128;48.686;9.738;2024-03-23T07:48:58;0.87;;;0.73;;
315;SDS011;14128;48.686;9.738;2024-03-23T07:51:25;1.00;;;0.80;;
315;SDS011;14128;48.686;9.738;2024-03-23T07:53:51;0.53;;;0.30;;
315;SDS011;14128;48.686;9.738;2024-03-23T07:56:18;0.93;;;0.50;;
315;SDS011;14128;48.686;9.738;2024-03-23T07:58:44;0.70;;;0.40;;
315;SDS011;14128;48.686;9.738;2024-03-23T08:01:13;0.50;;;0.33;;
315;SDS011;14128;48.686;9.738;2024-03-23T08:03:40;0.50;;;0.30;;
315;SDS011;14128;48.686;9.738;2024-03-23T08:06:10;0.63;;;0.40;;
315;SDS011;14128;48.686;9.738;2024-03-23T08:08:37;0.50;;;0.30;;
315;SDS011;14128;48.686;9.738;2024-03-23T08:11:05;0.50;;;0.30;;
315;SDS011;14128;48.686;9.738;2024-03-23T08:13:31;1.63;;;0.30;;
315;SDS011;14128;48.686;9.738;2024-03-23T08:15:58;1.07;;;0.40;;
315;SDS011;14128;48.686;9.738;2024-03-23T08:18:25;0.70;;;0.30;;
315;SDS011;14128;48.686;9.738;2024-03-23T08:20:56;0.63;;;0.40;;
315;SDS011;14128;48.686;9.738;2024-03-23T08:23:23;0.60;;;0.33;;
315;SDS011;14128;48.686;9.738;2024-03-23T08:25:50;0.70;;;0.40;;
315;SDS011;14128;48.686;9.738;2024-03-23T08:28:17;0.70;;;0.40;;
315;SDS011;14128;48.686;9.738;2024-03-23T08:30:44;0.50;;;0.40;;
315;SDS011;14128;48.686;9.738;2024-03-23T08:33:11;0.60;;;0.30;;
315;SDS011;14128;48.686;9.738;2024-03-23T08:35:38;0.70;;;0.43;;
315;SDS011;14128;48.686;9.738;2024-03-23T08:38:05;1.73;;;0.50;;
315;SDS011;14128;48.686;9.738;2024-03-23T08:40:32;0.40;;;0.30;;
315;SDS011;14128;48.686;9.738;2024-03-23T08:43:00;0.70;;;0.40;;
315;SDS011;14128;48.686;9.738;2024-03-23T08:45:26;0.50;;;0.30;;
315;SDS011;14128;48.686;9.738;2024-03-23T08:47:53;0.50;;;0.40;;
315;SDS011;14128;48.686;9.738;2024-03-23T08:50:19;0.60;;;0.30;;
315;SDS011;14128;48.686;9.738;2024-03-23T08:52:46;0.57;;;0.37;;
315;SDS011;14128;48.686;9.738;2024-03-23T08:55:13;0.80;;;0.80;;
315;SDS011;14128;48.686;9.738;2024-03-23T08:57:41;1.70;;;0.87;;
315;SDS011;14128;48.686;9.738;2024-03-23T09:00:08;0.77;;;0.77;;
315;SDS011;14128;48.686;9.738;2024-03-23T09:02:36;0.70;;;0.70;;
315;SDS011;14128;48.686;9.738;2024-03-23T09:05:02;1.00;;;0.90;;
315;SDS011;14128;48.686;9.738;2024-03-23T09:07:30;0.60;;;0.60;;
315;SDS011;14128;48.686;9.738;2024-03-23T09:09:56;0.80;;;0.70;;
315;SDS011;14128;48.686;9.738;2024-03-23T09:12:24;1.00;;;0.87;;
315;SDS011;14128;48.686;9.738;2024-03-23T09:14:51;1.17;;;1.10;;
315;SDS011;14128;48.686;9.738;2024-03-23T09:17:19;1.80;;;1.00;;
315;SDS011;14128;48.686;9.738;2024-03-23T09:19:45;1.57;;;1.47;;
315;SDS011;14128;48.686;9.738;2024-03-23T09:22:12;8.03;;;1.40;;
315;SDS011;14128;48.686;9.738;2024-03-23T09:24:38;2.80;;;1.40;;
315;SDS011;14128;48.686;9.738;2024-03-23T09:27:05;1.37;;;1.13;;
315;SDS011;14128;48.686;9.738;2024-03-23T09:29:31;1.70;;;1.20;;
315;SDS011;14128;48.686;9.738;2024-03-23T09:32:00;2.77;;;1.80;;
315;SDS011;14128;48.686;9.738;2024-03-23T09:34:26;3.30;;;1.77;;
315;SDS011;14128;48.686;9.738;2024-03-23T09:36:53;2.43;;;1.83;;
315;SDS011;14128;48.686;9.738;2024-03-23T09:39:20;5.67;;;2.30;;
315;SDS011;14128;48.686;9.738;2024-03-23T09:41:47;3.20;;;2.33;;
315;SDS011;14128;48.686;9.738;2024-03-23T09:44:13;5.60;;;2.73;;
315;SDS011;14128;48.686;9.738;2024-03-23T09:46:40;3.43;;;2.23;;
315;SDS011;14128;48.686;9.738;2024-03-23T09:49:08;2.43;;;1.93;;
315;SDS011;14128;48.686;9.738;2024-03-23T09:51:35;4.63;;;2.60;;
315;SDS011;14128;48.686;9.738;2024-03-23T09:54:02;4.50;;;2.37;;
315;SDS011;14128;48.686;9.738;2024-03-23T09:56:29;4.57;;;2.20;;
315;SDS011;14128;48.686;9.738;2024-03-23T09:59:00;4.03;;;2.87;;
315;SDS011;14128;48.686;9.738;2024-03-23T10:01:29;6.97;;;3.63;;
315;SDS011;14128;48.686;9.738;2024-03-23T10:03:55;4.00;;;2.23;;
315;SDS011;14128;48.686;9.738;2024-03-23T10:06:24;4.53;;;2.77;;
315;SDS011;14128;48.686;9.738;2024-03-23T10:08:50;6.23;;;3.30;;
315;SDS011;14128;48.686;9.738;2024-03-23T10:11:18;10.40;;;3.03;;
315;SDS011;14128;48.686;9.738;2024-03-23T10:13:46;3.43;;;2.10;;
315;SDS011;14128;48.686;9.738;2024-03-23T10:16:20;6.73;;;3.10;;
315;SDS011;14128;48.686;9.738;2024-03-23T10:18:47;8.73;;;3.60;;
315;SDS011;14128;48.686;9.738;2024-03-23T10:21:14;5.73;;;3.40;;
315;SDS011;14128;48.686;9.738;2024-03-23T10:23:42;9.93;;;2.73;;
315;SDS011;14128;48.686;9.738;2024-03-23T10:26:16;3.83;;;3.67;;
315;SDS011;14128;48.686;9.738;2024-03-23T10:28:50;3.00;;;2.30;;
315;SDS011;14128;48.686;9.738;2024-03-23T10:31:17;5.17;;;2.77;;
315;SDS011;14128;48.686;9.738;2024-03-23T10:33:44;9.47;;;3.23;;
315;SDS011;14128;48.686;9.738;2024-03-23T10:36:11;7.20;;;3.40;;
315;SDS011;14128;48.686;9.738;2024-03-23T10:38:38;7.43;;;3.27;;
315;SDS011;14128;48.686;9.738;2024-03-23T10:41:07;5.53;;;2.70;;
315;SDS011;14128;48.686;9.738;2024-03-23T10:43:34;5.73;;;2.43;;
315;SDS011;14128;48.686;9.738;2024-03-23T10:46:03;3.07;;;2.53;;
315;SDS011;14128;48.686;9.738;2024-03-23T10:48:29;5.00;;;3.17;;
315;SDS011;14128;48.686;9.738;2024-03-23T10:50:56;8.77;;;2.80;;
315;SDS011;14128;48.686;9.738;2024-03-23T10:53:24;4.47;;;2.30;;
315;SDS011;14128;48.686;9.738;2024-03-23T10:55:52;11.90;;;3.73;;
315;SDS011;14128;48.686;9.738;2024-03-23T10:58:21;6.17;;;3.03;;
315;SDS011;14128;48.686;9.738;2024-03-23T11:00:49;4.30;;;2.50;;
315;SDS011;14128;48.686;9.738;2024-03-23T11:03:31;4.73;;;2.90;;
315;SDS011;14128;48.686;9.738;2024-03-23T11:05:59;4.73;;;2.83;;
315;SDS011;14128;48.686;9.738;2024-03-23T11:08:31;4.90;;;2.63;;
315;SDS011;14128;48.686;9.738;2024-03-23T11:11:11;5.90;;;3.17;;
315;SDS011;14128;48.686;9.738;2024-03-23T11:13:39;6.93;;;3.23;;
315;SDS011;14128;48.686;9.738;2024-03-23T11:16:13;9.37;;;3.80;;
315;SDS011;14128;48.686;9.738;2024-03-23T11:18:39;3.03;;;2.33;;
315;SDS011;14128;48.686;9.738;2024-03-23T11:21:07;13.40;;;3.70;;
315;SDS011;14128;48.686;9.738;2024-03-23T11:23:33;5.90;;;2.70;;
315;SDS011;14128;48.686;9.738;2024-03-23T11:26:00;7.10;;;3.20;;
315;SDS011;14128;48.686;9.738;2024-03-23T11:28:26;3.20;;;2.67;;
315;SDS011;14128;48.686;9.738;2024-03-23T11:30:54;3.60;;;2.70;;
315;SDS011;14128;48.686;9.738;2024-03-23T11:33:21;7.20;;;4.00;;
315;SDS011;14128;48.686;9.738;2024-03-23T11:35:48;12.07;;;2.87;;
315;SDS011;14128;48.686;9.738;2024-03-23T11:38:14;3.57;;;2.73;;
315;SDS011;14128;48.686;9.738;2024-03-23T11:40:43;4.63;;;2.50;;
315;SDS011;14128;48.686;9.738;2024-03-23T11:43:11;4.63;;;3.40;;
315;SDS011;14128;48.686;9.738;2024-03-23T11:45:39;6.27;;;3.63;;
315;SDS011;14128;48.686;9.738;2024-03-23T11:48:08;5.10;;;3.70;;
315;SDS011;14128;48.686;9.738;2024-03-23T11:50:36;5.77;;;4.10;;
315;SDS011;14128;48.686;9.738;2024-03-23T11:53:06;5.60;;;3.80;;
315;SDS011;14128;48.686;9.738;2024-03-23T11:58:06;6.40;;;4.07;;
315;SDS011;14128;48.686;9.738;2024-03-23T12:00:33;8.77;;;3.93;;
315;SDS011;14128;48.686;9.738;2024-03-23T12:03:00;8.03;;;3.67;;
315;SDS011;14128;48.686;9.738;2024-03-23T12:05:29;6.83;;;3.70;;
315;SDS011;14128;48.686;9.738;2024-03-23T12:07:55;13.40;;;5.97;;
315;SDS011;14128;48.686;9.738;2024-03-23T12:10:22;8.00;;;4.70;;
315;SDS011;14128;48.686;9.738;2024-03-23T12:12:59;12.07;;;5.87;;
315;SDS011;14128;48.686;9.738;2024-03-23T12:15:26;14.17;;;6.63;;
315;SDS011;14128;48.686;9.738;2024-03-23T12:18:05;8.57;;;5.30;;
315;SDS011;14128;48.686;9.738;2024-03-23T12:20:34;6.43;;;4.00;;
315;SDS011;14128;48.686;9.738;2024-03-23T12:23:06;8.30;;;5.30;;
315;SDS011;14128;48.686;9.738;2024-03-23T12:25:34;11.93;;;5.17;;
315;SDS011;14128;48.686;9.738;2024-03-23T12:28:00;5.00;;;3.10;;
315;SDS011;14128;48.686;9.738;2024-03-23T12:30:27;10.90;;;4.73;;
315;SDS011;14128;48.686;9.738;2024-03-23T12:32:54;7.40;;;3.23;;
315;SDS011;14128;48.686;9.738;2024-03-23T12:35:21;5.30;;;3.13;;
315;SDS011;14128;48.686;9.738;2024-03-23T12:37:49;5.70;;;3.93;;
315;SDS011;14128;48.686;9.738;2024-03-23T12:40:16;4.00;;;2.90;;
315;SDS011;14128;48.686;9.738;2024-03-23T12:42:42;5.53;;;2.60;;
315;SDS011;14128;48.686;9.738;2024-03-23T12:45:10;4.50;;;2.80;;
315;SDS011;14128;48.686;9.738;2024-03-23T12:47:36;4.30;;;3.17;;
315;SDS011;14128;48.686;9.738;2024-03-23T12:50:03;9.23;;;3.60;;
315;SDS011;14128;48.686;9.738;2024-03-23T12:52:30;19.03;;;3.60;;
315;SDS011;14128;48.686;9.738;2024-03-23T12:54:59;7.60;;;3.90;;
315;SDS011;14128;48.686;9.738;2024-03-23T12:57:25;4.23;;;3.77;;
315;SDS011;14128;48.686;9.738;2024-03-23T12:59:52;4.30;;;2.90;;
315;SDS011;14128;48.686;9.738;2024-03-23T13:02:19;2.30;;;1.97;;
315;SDS011;14128;48.686;9.738;2024-03-23T13:04:49;11.10;;;3.90;;
315;SDS011;14128;48.686;9.738;2024-03-23T13:07:15;5.03;;;3.50;;
315;SDS011;14128;48.686;9.738;2024-03-23T13:09:42;13.93;;;4.20;;
315;SDS011;14128;48.686;9.738;2024-03-23T13:12:10;8.00;;;3.87;;
315;SDS011;14128;48.686;9.738;2024-03-23T13:14:37;3.47;;;1.97;;
315;SDS011;14128;48.686;9.738;2024-03-23T13:17:04;2.57;;;1.87;;
315;SDS011;14128;48.686;9.738;2024-03-23T13:19:31;4.50;;;1.93;;
315;SDS011;14128;48.686;9.738;2024-03-23T13:21:57;4.73;;;1.80;;
315;SDS011;14128;48.686;9.738;2024-03-23T13:24:25;5.60;;;1.97;;
315;SDS011;14128;48.686;9.738;2024-03-23T13:26:51;6.30;;;2.73;;
315;SDS011;14128;48.686;9.738;2024-03-23T13:29:20;4.80;;;2.40;;
315;SDS011;14128;48.686;9.738;2024-03-23T13:31:47;1.73;;;1.70;;
315;SDS011;14128;48.686;9.738;2024-03-23T13:34:15;8.53;;;3.27;;
315;SDS011;14128;48.686;9.738;2024-03-23T13:36:41;4.53;;;2.13;;
315;SDS011;14128;48.686;9.738;2024-03-23T13:39:08;10.67;;;2.23;;
315;SDS011;14128;48.686;9.738;2024-03-23T13:41:36;3.03;;;2.23;;
315;SDS011;14128;48.686;9.738;2024-03-23T13:44:04;8.80;;;2.93;;
315;SDS011;14128;48.686;9.738;2024-03-23T13:46:31;4.20;;;2.40;;
315;SDS011;14128;48.686;9.738;2024-03-23T13:48:59;10.07;;;4.57;;
315;SDS011;14128;48.686;9.738;2024-03-23T13:51:25;6.93;;;2.10;;
315;SDS011;14128;48.686;9.738;2024-03-23T13:53:53;3.53;;;2.83;;
315;SDS011;14128;48.686;9.738;2024-03-23T13:56:19;7.10;;;2.87;;
315;SDS011;14128;48.686;9.738;2024-03-23T13:58:46;4.80;;;2.10;;
315;SDS011;14128;48.686;9.738;2024-03-23T14:01:13;7.23;;;3.03;;
315;SDS011;14128;48.686;9.738;2024-03-23T14:03:42;2.37;;;2.00;;
315;SDS011;14128;48.686;9.738;2024-03-23T14:06:08;4.40;;;2.40;;
315;SDS011;14128;48.686;9.738;2024-03-23T14:08:35;1.60;;;1.50;;
315;SDS011;14128;48.686;9.738;2024-03-23T14:11:04;3.60;;;1.50;;
315;SDS011;14128;48.686;9.738;2024-03-23T14:13:31;3.57;;;0.90;;
315;SDS011;14128;48.686;9.738;2024-03-23T14:15:58;2.93;;;1.00;;
315;SDS011;14128;48.686;9.738;2024-03-23T14:18:25;3.07;;;1.10;;
315;SDS011;14128;48.686;9.738;2024-03-23T14:20:55;1.77;;;1.27;;
315;SDS011;14128;48.686;9.738;2024-03-23T14:23:24;3.33;;;0.93;;
315;SDS011;14128;48.686;9.738;2024-03-23T14:25:52;2.47;;;1.40;;
315;SDS011;14128;48.686;9.738;2024-03-23T14:28:19;4.60;;;1.33;;
315;SDS011;14128;48.686;9.738;2024-03-23T14:30:47;3.13;;;1.47;;
315;SDS011;14128;48.686;9.738;2024-03-23T14:33:14;2.27;;;1.30;;
315;SDS011;14128;48.686;9.738;2024-03-23T14:35:40;2.83;;;1.27;;
315;SDS011;14128;48.686;9.738;2024-03-23T14:38:09;2.90;;;1.03;;
315;SDS011;14128;48.686;9.738;2024-03-23T14:40:35;1.73;;;0.60;;
315;SDS011;14128;48.686;9.738;2024-03-23T14:43:02;1.90;;;1.20;;
315;SDS011;14128;48.686;9.738;2024-03-23T14:45:28;0.90;;;0.60;;
315;SDS011;14128;48.686;9.738;2024-03-23T14:47:55;2.07;;;0.90;;
315;SDS011;14128;48.686;9.738;2024-03-23T14:50:23;1.87;;;1.00;;
315;SDS011;14128;48.686;9.738;2024-03-23T14:52:50;2.93;;;1.27;;
315;SDS011;14128;48.686;9.738;2024-03-23T14:55:18;1.10;;;0.73;;
315;SDS011;14128;48.686;9.738;2024-03-23T14:57:45;1.50;;;1.10;;
315;SDS011;14128;48.686;9.738;2024-03-23T15:00:12;1.13;;;0.60;;
315;SDS011;14128;48.686;9.738;2024-03-23T15:02:40;4.33;;;1.13;;
315;SDS011;14128;48.686;9.738;2024-03-23T15:05:06;3.30;;;2.00;;
315;SDS011;14128;48.686;9.738;2024-03-23T15:07:35;7.73;;;2.07;;
315;SDS011;14128;48.686;9.738;2024-03-23T15:10:01;1.47;;;1.00;;
315;SDS011;14128;48.686;9.738;2024-03-23T15:12:31;1.97;;;1.50;;
315;SDS011;14128;48.686;9.738;2024-03-23T15:14:58;6.50;;;2.40;;
315;SDS011;14128;48.686;9.738;2024-03-23T15:17:25;4.70;;;1.57;;
315;SDS011;14128;48.686;9.738;2024-03-23T15:19:52;2.60;;;1.53;;
315;SDS011;14128;48.686;9.738;2024-03-23T15:22:19;3.73;;;1.50;;
315;SDS011;14128;48.686;9.738;2024-03-23T15:24:46;4.07;;;2.17;;
315;SDS011;14128;48.686;9.738;2024-03-23T15:27:13;5.50;;;1.40;;
315;SDS011;14128;48.686;9.738;2024-03-23T15:29:41;2.70;;;1.80;;
315;SDS011;14128;48.686;9.738;2024-03-23T15:32:10;2.87;;;1.20;;
315;SDS011;14128;48.686;9.738;2024-03-23T15:34:37;2.07;;;0.87;;
315;SDS011;14128;48.686;9.738;2024-03-23T15:37:04;3.80;;;0.93;;
315;SDS011;14128;48.686;9.738;2024-03-23T15:39:30;3.00;;;0.90;;
315;SDS011;14128;48.686;9.738;2024-03-23T15:41:57;3.83;;;0.80;;
315;SDS011;14128;48.686;9.738;2024-03-23T15:44:24;3.33;;;0.73;;
315;SDS011;14128;48.686;9.738;2024-03-23T15:46:52;1.93;;;0.67;;
315;SDS011;14128;48.686;9.738;2024-03-23T15:49:18;1.27;;;0.97;;
315;SDS011;14128;48.686;9.738;2024-03-23T15:51:45;1.07;;;0.70;;
315;SDS011;14128;48.686;9.738;2024-03-23T15:54:12;1.80;;;0.93;;
315;SDS011;14128;48.686;9.738;2024-03-23T15:56:39;3.90;;;0.87;;
315;SDS011;14128;48.686;9.738;2024-03-23T15:59:05;1.23;;;1.00;;
315;SDS011;14128;48.686;9.738;2024-03-23T16:01:32;1.73;;;1.00;;
315;SDS011;14128;48.686;9.738;2024-03-23T16:04:00;3.77;;;1.23;;
315;SDS011;14128;48.686;9.738;2024-03-23T16:06:27;3.70;;;1.23;;